createdAt,value
2017-11-17T00:01:16.725Z,-0.30
2017-11-17T00:03:44.279Z,-0.40
2017-11-17T00:06:11.831Z,-0.30
2017-11-17T00:08:39.392Z,-0.20
2017-11-17T00:11:06.962Z,-0.10
2017-11-17T00:13:34.518Z,-0.20
2017-11-17T00:16:02.089Z,-0.20
2017-11-17T00:18:29.638Z,-0.10
2017-11-17T00:20:57.210Z,-0.10
2017-11-17T00:23:24.780Z,-0.20
2017-11-17T00:25:52.339Z,-0.20
2017-11-17T00:28:19.902Z,-0.10
2017-11-17T00:30:47.446Z,-0.10
2017-11-17T00:33:14.985Z,0.00
2017-11-17T00:35:42.544Z,0.10
2017-11-17T00:38:10.101Z,0.00
2017-11-17T00:40:37.690Z,0.10
2017-11-17T00:43:05.233Z,0.10
2017-11-17T00:45:32.795Z,0.20
2017-11-17T00:48:00.323Z,0.10
2017-11-17T00:50:27.872Z,0.10
2017-11-17T00:52:56.189Z,0.10
2017-11-17T00:55:23.718Z,0.10
2017-11-17T00:57:51.278Z,0.10
2017-11-17T01:00:18.807Z,0.20
2017-11-17T01:02:48.726Z,0.30
2017-11-17T01:05:17.038Z,0.30
2017-11-17T01:07:44.602Z,0.30
2017-11-17T01:10:12.138Z,0.20
2017-11-17T01:12:39.688Z,0.20
2017-11-17T01:15:07.257Z,0.20
2017-11-17T01:17:34.797Z,0.20
2017-11-17T01:20:02.369Z,0.10
2017-11-17T01:22:29.907Z,0.30
2017-11-17T01:24:57.473Z,0.20
2017-11-17T01:27:25.020Z,0.20
2017-11-17T01:29:52.592Z,0.30
2017-11-17T01:32:20.126Z,0.40
2017-11-17T01:34:48.459Z,0.40
2017-11-17T01:37:15.995Z,0.30
2017-11-17T01:39:43.533Z,0.30
2017-11-17T01:42:11.861Z,0.40
2017-11-17T01:44:39.403Z,0.30
2017-11-17T01:47:06.969Z,0.30
2017-11-17T01:49:34.505Z,0.30
2017-11-17T01:52:02.062Z,0.30
2017-11-17T01:54:29.594Z,0.30
2017-11-17T01:56:57.948Z,0.30
2017-11-17T01:59:25.482Z,0.30
2017-11-17T02:01:53.053Z,0.40
2017-11-17T02:04:20.702Z,0.40
2017-11-17T02:06:48.278Z,0.30
2017-11-17T02:09:15.838Z,0.30
2017-11-17T02:11:43.382Z,0.30
2017-11-17T02:14:10.938Z,0.40
2017-11-17T02:16:38.474Z,0.40
2017-11-17T02:19:06.025Z,0.40
2017-11-17T02:21:34.351Z,0.40
2017-11-17T02:24:01.892Z,0.40
2017-11-17T02:26:29.451Z,0.60
2017-11-17T02:28:56.998Z,0.50
2017-11-17T02:31:24.575Z,0.60
2017-11-17T02:33:52.111Z,0.60
2017-11-17T02:36:19.663Z,0.50
2017-11-17T02:38:48.176Z,0.40
2017-11-17T02:41:15.723Z,0.40
2017-11-17T02:43:43.264Z,0.40
2017-11-17T02:46:10.797Z,0.50
2017-11-17T02:48:38.350Z,0.30
2017-11-17T02:51:05.890Z,0.20
2017-11-17T02:53:33.447Z,0.30
2017-11-17T02:56:00.980Z,0.30
2017-11-17T02:58:28.570Z,0.30
2017-11-17T03:00:56.111Z,0.30
2017-11-17T03:03:23.669Z,0.20
2017-11-17T03:05:51.201Z,0.20
2017-11-17T03:08:18.740Z,0.30
2017-11-17T03:10:46.294Z,0.30
2017-11-17T03:13:13.847Z,0.50
2017-11-17T03:15:41.407Z,0.50
2017-11-17T03:18:08.977Z,0.40
2017-11-17T03:20:36.530Z,0.20
2017-11-17T03:23:04.067Z,0.10
2017-11-17T03:25:32.418Z,0.20
2017-11-17T03:27:59.964Z,0.20
2017-11-17T03:30:27.527Z,0.30
2017-11-17T03:32:55.064Z,0.20
2017-11-17T03:35:22.610Z,0.10
2017-11-17T03:37:50.170Z,0.20
2017-11-17T03:40:17.738Z,0.30
2017-11-17T03:42:45.321Z,0.40
2017-11-17T03:45:12.869Z,0.20
2017-11-17T03:47:40.445Z,0.20
2017-11-17T03:50:07.994Z,0.20
2017-11-17T03:52:35.527Z,0.30
2017-11-17T03:55:03.082Z,0.30
2017-11-17T03:57:30.636Z,0.30
2017-11-17T03:59:58.189Z,0.30
2017-11-17T04:02:25.742Z,0.50
2017-11-17T04:04:53.286Z,0.50
2017-11-17T04:07:20.836Z,0.40
2017-11-17T04:09:48.374Z,0.50
2017-11-17T04:12:16.710Z,0.70
2017-11-17T04:14:44.238Z,0.70
2017-11-17T04:17:11.818Z,0.80
2017-11-17T04:19:39.372Z,0.80
2017-11-17T04:22:06.927Z,0.70
2017-11-17T04:24:34.482Z,0.80
2017-11-17T04:27:02.047Z,0.80
2017-11-17T04:29:29.625Z,0.90
2017-11-17T04:31:57.177Z,1.00
2017-11-17T04:34:24.738Z,0.90
2017-11-17T04:36:52.294Z,0.80
2017-11-17T04:39:19.847Z,0.90
2017-11-17T04:41:47.426Z,0.90
2017-11-17T04:44:14.975Z,0.80
2017-11-17T04:46:42.529Z,1.10
2017-11-17T04:49:10.085Z,1.10
2017-11-17T04:51:37.630Z,1.00
2017-11-17T04:54:05.188Z,1.00
2017-11-17T04:56:32.719Z,1.20
2017-11-17T04:59:01.056Z,0.90
2017-11-17T05:01:28.621Z,0.90
2017-11-17T05:03:56.174Z,0.90
2017-11-17T05:06:23.734Z,0.90
2017-11-17T05:08:51.292Z,0.80
2017-11-17T05:11:18.938Z,0.60
2017-11-17T05:13:46.495Z,0.60
2017-11-17T05:16:14.041Z,0.60
2017-11-17T05:18:41.602Z,0.70
2017-11-17T05:21:09.138Z,0.70
2017-11-17T05:23:37.491Z,0.70
2017-11-17T05:26:05.042Z,0.70
2017-11-17T05:28:32.584Z,0.70
2017-11-17T05:31:00.162Z,0.80
2017-11-17T05:33:28.515Z,0.60
2017-11-17T05:35:56.063Z,0.60
2017-11-17T05:38:23.634Z,0.60
2017-11-17T05:40:51.203Z,0.70
2017-11-17T05:43:18.765Z,0.90
2017-11-17T05:45:46.306Z,0.90
2017-11-17T05:48:13.859Z,0.90
2017-11-17T05:50:41.457Z,0.80
2017-11-17T05:53:08.993Z,0.70
2017-11-17T05:55:36.570Z,0.70
2017-11-17T05:58:04.118Z,0.80
2017-11-17T06:00:31.695Z,1.10
2017-11-17T06:02:59.241Z,1.00
2017-11-17T06:05:26.896Z,1.10
2017-11-17T06:07:54.835Z,1.00
2017-11-17T06:10:23.130Z,1.10
2017-11-17T06:12:50.686Z,1.10
2017-11-17T06:15:18.222Z,1.10
2017-11-17T06:17:46.556Z,1.20
2017-11-17T06:20:14.099Z,1.20
2017-11-17T06:22:41.652Z,1.10
2017-11-17T06:25:09.188Z,1.10
2017-11-17T06:27:36.735Z,1.00
2017-11-17T06:30:05.072Z,1.10
2017-11-17T06:32:32.594Z,1.10
2017-11-17T06:35:00.151Z,1.00
2017-11-17T06:37:27.680Z,1.10
2017-11-17T06:39:55.997Z,1.10
2017-11-17T06:42:23.534Z,1.10
2017-11-17T06:44:51.858Z,1.20
2017-11-17T06:47:19.391Z,1.20
2017-11-17T06:49:46.951Z,1.30
2017-11-17T06:52:14.477Z,1.20
2017-11-17T06:54:42.798Z,1.00
2017-11-17T06:57:10.343Z,1.00
2017-11-17T06:59:37.888Z,1.10
2017-11-17T07:02:05.429Z,1.10
2017-11-17T07:04:33.776Z,1.20
2017-11-17T07:07:01.319Z,1.20
2017-11-17T07:09:28.860Z,1.50
2017-11-17T07:11:56.438Z,1.40
2017-11-17T07:14:23.980Z,1.50
2017-11-17T07:16:51.538Z,1.40
2017-11-17T07:19:19.070Z,1.50
2017-11-17T07:21:47.380Z,1.60
2017-11-17T07:24:14.961Z,1.60
2017-11-17T07:26:42.508Z,1.60
2017-11-17T07:29:10.049Z,1.50
2017-11-17T07:31:37.610Z,1.60
2017-11-17T07:34:05.158Z,1.60
2017-11-17T07:36:33.479Z,1.70
2017-11-17T07:39:01.005Z,1.70
2017-11-17T07:41:28.560Z,1.70
2017-11-17T07:43:56.114Z,1.90
2017-11-17T07:46:23.843Z,1.90
2017-11-17T07:48:51.394Z,1.90
2017-11-17T07:51:18.934Z,1.80
2017-11-17T07:53:46.497Z,1.80
2017-11-17T07:56:14.047Z,1.80
2017-11-17T07:58:41.646Z,1.80
2017-11-17T08:01:09.958Z,1.80
2017-11-17T08:03:37.519Z,1.70
2017-11-17T08:06:05.860Z,1.80
2017-11-17T08:08:33.407Z,1.80
2017-11-17T08:11:00.959Z,1.80
2017-11-17T08:13:28.504Z,2.00
2017-11-17T08:15:56.060Z,1.90
2017-11-17T08:18:46.361Z,1.90
2017-11-17T08:21:13.920Z,2.00
2017-11-17T08:23:41.448Z,2.20
2017-11-17T08:26:08.994Z,2.10
2017-11-17T08:28:37.319Z,2.00
2017-11-17T08:31:04.881Z,2.00
2017-11-17T08:33:32.432Z,2.10
2017-11-17T08:35:59.979Z,1.90
2017-11-17T08:38:27.532Z,2.10
2017-11-17T08:40:55.105Z,2.00
2017-11-17T08:43:22.637Z,2.00
2017-11-17T08:45:50.971Z,2.10
2017-11-17T08:48:18.536Z,2.10
2017-11-17T08:50:46.103Z,2.00
2017-11-17T08:53:13.657Z,2.10
2017-11-17T08:55:41.218Z,2.30
2017-11-17T08:58:08.787Z,2.20
2017-11-17T09:00:36.358Z,2.20
2017-11-17T09:03:04.663Z,2.30
2017-11-17T09:05:32.226Z,2.30
2017-11-17T09:07:59.805Z,2.30
2017-11-17T09:10:27.347Z,2.20
2017-11-17T09:12:54.911Z,2.20
2017-11-17T09:15:22.469Z,2.20
2017-11-17T09:17:50.008Z,2.30
2017-11-17T09:20:18.360Z,2.50
2017-11-17T09:22:45.928Z,2.50
2017-11-17T09:25:14.283Z,2.30
2017-11-17T09:27:41.827Z,2.30
2017-11-17T09:30:09.385Z,2.40
2017-11-17T09:32:36.939Z,2.60
2017-11-17T09:35:04.503Z,2.60
2017-11-17T09:37:32.082Z,2.60
2017-11-17T09:39:59.603Z,2.70
2017-11-17T09:42:27.151Z,2.70
2017-11-17T09:44:54.688Z,2.90
2017-11-17T09:47:23.009Z,2.90
2017-11-17T09:49:50.562Z,2.90
2017-11-17T09:52:18.124Z,2.80
2017-11-17T09:54:45.668Z,2.80
2017-11-17T09:57:13.995Z,3.20
2017-11-17T09:59:41.538Z,3.20
2017-11-17T10:02:09.106Z,3.20
2017-11-17T10:04:36.650Z,3.20
2017-11-17T10:07:04.187Z,3.10
2017-11-17T10:09:31.747Z,3.20
2017-11-17T10:11:59.309Z,3.20
2017-11-17T10:14:26.879Z,3.30
2017-11-17T10:16:54.410Z,3.30
2017-11-17T10:19:22.745Z,3.30
2017-11-17T10:21:50.299Z,3.30
2017-11-17T10:24:17.834Z,3.50
2017-11-17T10:26:45.383Z,3.50
2017-11-17T10:29:12.955Z,3.60
2017-11-17T10:31:40.495Z,3.60
2017-11-17T10:34:08.834Z,3.70
2017-11-17T10:36:36.390Z,3.60
2017-11-17T10:39:03.962Z,3.70
2017-11-17T10:41:31.541Z,3.80
2017-11-17T10:43:59.857Z,4.00
2017-11-17T10:46:27.451Z,3.90
2017-11-17T10:48:54.988Z,4.00
2017-11-17T10:51:22.543Z,4.20
2017-11-17T10:53:50.074Z,4.20
2017-11-17T10:56:34.415Z,4.50
2017-11-17T10:59:04.761Z,4.40
2017-11-17T11:01:32.340Z,4.30
2017-11-17T11:03:59.870Z,4.40
2017-11-17T11:06:27.412Z,4.40
2017-11-17T11:08:55.736Z,4.40
2017-11-17T11:11:28.922Z,4.40
2017-11-17T11:13:56.471Z,4.40
2017-11-17T11:16:24.047Z,4.50
2017-11-17T11:18:51.607Z,4.50
2017-11-17T11:21:19.149Z,4.70
2017-11-17T11:23:46.708Z,4.80
2017-11-17T11:26:14.269Z,4.70
2017-11-17T11:28:41.854Z,4.70
2017-11-17T11:31:09.387Z,4.80
2017-11-17T11:33:36.949Z,4.70
2017-11-17T11:36:04.490Z,4.90
2017-11-17T11:38:32.816Z,5.00
2017-11-17T11:41:00.367Z,5.00
2017-11-17T11:43:27.905Z,4.90
2017-11-17T11:45:55.466Z,4.80
2017-11-17T11:48:22.994Z,4.80
2017-11-17T11:50:51.327Z,4.80
2017-11-17T11:53:18.877Z,4.80
2017-11-17T11:55:46.419Z,4.80
2017-11-17T11:58:14.601Z,4.60
2017-11-17T12:00:42.175Z,4.50
2017-11-17T12:03:09.718Z,4.50
2017-11-17T12:05:37.274Z,4.70
2017-11-17T12:08:04.823Z,4.80
2017-11-17T12:10:33.127Z,4.70
2017-11-17T12:13:00.687Z,4.70
2017-11-17T12:15:28.247Z,4.60
2017-11-17T12:17:55.802Z,4.60
2017-11-17T12:20:23.365Z,4.50
2017-11-17T12:22:50.929Z,4.50
2017-11-17T12:25:18.470Z,4.60
2017-11-17T12:27:46.031Z,4.70
2017-11-17T12:30:13.573Z,4.70
2017-11-17T12:32:41.143Z,4.80
2017-11-17T12:35:08.678Z,4.80
2017-11-17T12:37:36.991Z,4.70
2017-11-17T12:40:04.542Z,4.70
2017-11-17T12:42:32.116Z,4.60
2017-11-17T12:44:59.676Z,4.80
2017-11-17T12:47:27.205Z,4.70
2017-11-17T12:49:55.494Z,4.50
2017-11-17T12:52:23.058Z,4.40
2017-11-17T12:54:50.612Z,4.30
2017-11-17T12:57:18.352Z,4.30
2017-11-17T12:59:45.887Z,4.40
2017-11-17T13:02:13.438Z,4.30
2017-11-17T13:04:40.973Z,4.20
2017-11-17T13:07:08.534Z,4.30
2017-11-17T13:09:36.074Z,4.30
2017-11-17T13:12:03.623Z,4.30
2017-11-17T13:14:31.920Z,4.20
2017-11-17T13:16:59.495Z,4.20
2017-11-17T13:19:28.643Z,4.20
2017-11-17T13:21:56.202Z,4.20
2017-11-17T13:24:23.737Z,4.20
2017-11-17T13:26:51.291Z,4.30
2017-11-17T13:29:18.850Z,4.30
2017-11-17T13:31:46.383Z,4.30
2017-11-17T13:34:13.943Z,4.30
2017-11-17T13:36:41.470Z,4.30
2017-11-17T13:39:09.785Z,4.50
2017-11-17T13:41:37.332Z,4.50
2017-11-17T13:44:04.899Z,4.40
2017-11-17T13:46:32.446Z,4.60
2017-11-17T13:49:00.013Z,4.60
2017-11-17T13:51:27.562Z,4.50
2017-11-17T13:53:55.126Z,4.40
2017-11-17T13:56:22.688Z,4.30
2017-11-17T13:58:50.234Z,4.40
2017-11-17T14:01:17.799Z,4.40
2017-11-17T14:03:45.371Z,4.20
2017-11-17T14:06:12.907Z,4.10
2017-11-17T14:08:41.227Z,3.80
2017-11-17T14:11:08.793Z,3.80
2017-11-17T14:13:36.350Z,3.90
2017-11-17T14:16:03.898Z,4.20
2017-11-17T14:18:31.565Z,4.40
2017-11-17T14:20:59.122Z,4.40
2017-11-17T14:23:26.774Z,4.40
2017-11-17T14:25:54.338Z,4.20
2017-11-17T14:28:21.910Z,4.20
2017-11-17T14:30:49.468Z,4.10
2017-11-17T14:33:17.015Z,4.10
2017-11-17T14:35:44.563Z,4.10
2017-11-17T14:38:12.131Z,4.20
2017-11-17T14:40:39.660Z,4.10
2017-11-17T14:43:07.219Z,4.10
2017-11-17T14:45:34.762Z,4.20
2017-11-17T14:48:05.087Z,4.10
2017-11-17T14:50:32.636Z,4.10
2017-11-17T14:53:00.971Z,4.10
2017-11-17T14:55:28.508Z,4.10
2017-11-17T14:57:56.073Z,4.10
2017-11-17T15:00:23.628Z,4.10
2017-11-17T15:02:51.214Z,4.00
2017-11-17T15:05:18.773Z,4.10
2017-11-17T15:07:46.806Z,4.10
2017-11-17T15:10:14.359Z,4.00
2017-11-17T15:12:41.898Z,4.00
2017-11-17T15:15:10.239Z,3.90
2017-11-17T15:17:37.796Z,3.90
2017-11-17T15:20:05.338Z,3.80
2017-11-17T15:22:32.924Z,3.80
2017-11-17T15:25:00.476Z,3.80
2017-11-17T15:27:28.024Z,3.80
2017-11-17T15:29:55.561Z,3.80
2017-11-17T15:32:23.120Z,3.90
2017-11-17T15:34:50.670Z,3.90
2017-11-17T15:37:18.981Z,3.90
2017-11-17T15:39:46.553Z,3.90
2017-11-17T15:42:14.095Z,3.90
2017-11-17T15:44:41.648Z,4.00
2017-11-17T15:47:09.189Z,3.90
2017-11-17T15:49:36.759Z,4.10
2017-11-17T15:52:04.322Z,4.10
2017-11-17T15:54:32.038Z,4.10
2017-11-17T15:56:59.586Z,4.00
2017-11-17T15:59:27.111Z,4.00
2017-11-17T16:01:54.682Z,3.90
2017-11-17T16:04:22.222Z,3.90
2017-11-17T16:06:49.780Z,3.90
2017-11-17T16:09:17.317Z,3.90
2017-11-17T16:11:45.630Z,3.90
2017-11-17T16:14:13.199Z,3.90
2017-11-17T16:16:40.758Z,3.90
2017-11-17T16:19:08.339Z,3.90
2017-11-17T16:21:35.887Z,3.90
2017-11-17T16:24:03.431Z,3.90
2017-11-17T16:26:30.979Z,3.90
2017-11-17T16:28:58.550Z,4.00
2017-11-17T16:31:26.080Z,4.00
2017-11-17T16:33:54.402Z,4.00
2017-11-17T16:36:21.952Z,4.00
2017-11-17T16:38:49.508Z,4.00
2017-11-17T16:41:17.107Z,4.00
2017-11-17T16:43:45.431Z,4.00
2017-11-17T16:46:13.018Z,4.00
2017-11-17T16:48:40.568Z,4.00
2017-11-17T16:51:08.132Z,3.90
2017-11-17T16:53:35.714Z,3.90
2017-11-17T16:56:03.276Z,3.90
2017-11-17T16:58:30.856Z,3.90
2017-11-17T17:00:59.159Z,3.90
2017-11-17T17:03:26.764Z,3.90
2017-11-17T17:05:54.295Z,3.90
2017-11-17T17:08:21.862Z,3.70
2017-11-17T17:10:49.405Z,3.70
2017-11-17T17:13:16.975Z,3.70
2017-11-17T17:15:44.550Z,3.60
2017-11-17T17:18:12.093Z,3.70
2017-11-17T17:20:39.681Z,3.60
2017-11-17T17:23:07.254Z,3.60
2017-11-17T17:25:34.800Z,3.60
2017-11-17T17:28:02.347Z,3.60
2017-11-17T17:30:29.910Z,3.70
2017-11-17T17:32:57.468Z,3.70
2017-11-17T17:35:25.028Z,3.70
2017-11-17T17:37:52.579Z,3.60
2017-11-17T17:40:20.115Z,3.60
2017-11-17T17:42:47.694Z,3.60
2017-11-17T17:45:15.277Z,3.60
2017-11-17T17:47:42.807Z,3.70
2017-11-17T17:50:10.363Z,3.80
2017-11-17T17:52:39.347Z,4.00
2017-11-17T17:55:06.927Z,4.20
2017-11-17T17:57:34.497Z,4.10
2017-11-17T18:00:02.081Z,4.00
2017-11-17T18:02:29.613Z,3.90
2017-11-17T18:04:57.183Z,3.90
2017-11-17T18:07:24.746Z,3.90
2017-11-17T18:09:52.278Z,3.90
2017-11-17T18:12:19.837Z,3.70
2017-11-17T18:14:47.373Z,3.70
2017-11-17T18:17:15.694Z,3.70
2017-11-17T18:19:43.244Z,3.70
2017-11-17T18:22:10.799Z,3.70
2017-11-17T18:24:38.362Z,3.70
2017-11-17T18:27:05.946Z,3.80
2017-11-17T18:29:33.492Z,3.80
2017-11-17T18:32:01.608Z,3.80
2017-11-17T18:34:29.162Z,3.90
2017-11-17T18:36:56.747Z,3.80
2017-11-17T18:39:25.055Z,3.80
2017-11-17T18:41:52.724Z,3.80
2017-11-17T18:44:20.361Z,3.80
2017-11-17T18:46:47.961Z,3.80
2017-11-17T18:49:16.235Z,3.80
2017-11-17T18:51:43.811Z,3.80
2017-11-17T18:54:11.353Z,3.80
2017-11-17T18:56:38.931Z,3.90
2017-11-17T18:59:06.545Z,4.00
2017-11-17T19:01:34.894Z,3.70
2017-11-17T19:04:02.467Z,3.70
2017-11-17T19:06:30.790Z,3.70
2017-11-17T19:08:58.374Z,3.70
2017-11-17T19:11:26.011Z,3.60
2017-11-17T19:13:54.404Z,3.70
2017-11-17T19:16:21.956Z,3.70
2017-11-17T19:18:49.522Z,3.70
2017-11-17T19:21:17.065Z,3.70
2017-11-17T19:23:44.661Z,3.60
2017-11-17T19:26:12.214Z,3.70
2017-11-17T19:28:39.775Z,3.70
2017-11-17T19:31:07.340Z,3.80
2017-11-17T19:33:34.910Z,3.70
2017-11-17T19:36:03.303Z,3.70
2017-11-17T19:38:31.631Z,3.70
2017-11-17T19:40:59.195Z,3.70
2017-11-17T19:43:26.739Z,3.70
2017-11-17T19:45:54.315Z,3.70
2017-11-17T19:48:21.858Z,3.60
2017-11-17T19:50:49.432Z,3.60
2017-11-17T19:53:16.977Z,3.60
2017-11-17T19:55:44.526Z,3.70
2017-11-17T19:58:12.070Z,3.70
2017-11-17T20:00:39.635Z,3.70
2017-11-17T20:03:07.178Z,3.70
2017-11-17T20:05:35.498Z,3.70
2017-11-17T20:08:03.045Z,3.70
2017-11-17T20:10:33.626Z,3.70
2017-11-17T20:13:01.211Z,3.70
2017-11-17T20:15:29.538Z,3.60
2017-11-17T20:17:57.119Z,3.50
2017-11-17T20:20:24.655Z,3.60
2017-11-17T20:22:52.228Z,3.80
2017-11-17T20:25:19.777Z,3.70
2017-11-17T20:27:47.357Z,3.60
2017-11-17T20:30:14.915Z,3.90
2017-11-17T20:32:42.526Z,3.90
2017-11-17T20:35:10.101Z,3.80
2017-11-17T20:37:37.657Z,3.70
2017-11-17T20:40:05.253Z,3.70
2017-11-17T20:42:32.992Z,3.70
2017-11-17T20:45:00.568Z,3.60
2017-11-17T20:47:28.128Z,3.60
2017-11-17T20:49:55.687Z,3.60
2017-11-17T20:52:23.235Z,3.60
2017-11-17T20:54:50.807Z,3.70
2017-11-17T20:57:18.357Z,3.60
2017-11-17T20:59:45.935Z,3.60
2017-11-17T21:02:13.473Z,3.60
2017-11-17T21:04:41.051Z,3.70
2017-11-17T21:07:08.638Z,3.60
2017-11-17T21:09:36.947Z,3.60
2017-11-17T21:12:04.531Z,3.60
2017-11-17T21:14:32.079Z,3.70
2017-11-17T21:16:59.663Z,3.60
2017-11-17T21:19:27.250Z,3.70
2017-11-17T21:21:54.847Z,3.70
2017-11-17T21:24:22.453Z,3.70
2017-11-17T21:26:50.009Z,3.70
2017-11-17T21:29:17.563Z,3.70
2017-11-17T21:31:45.151Z,3.70
2017-11-17T21:34:12.719Z,3.70
2017-11-17T21:36:41.030Z,3.70
2017-11-17T21:39:08.574Z,3.70
2017-11-17T21:41:36.891Z,3.80
2017-11-17T21:44:04.458Z,3.80
2017-11-17T21:46:32.022Z,3.80
2017-11-17T21:48:59.565Z,3.80
2017-11-17T21:51:27.141Z,3.80
2017-11-17T21:53:54.681Z,3.70
2017-11-17T21:56:22.290Z,3.70
2017-11-17T21:58:49.822Z,3.80
2017-11-17T22:01:17.387Z,3.80
2017-11-17T22:03:44.933Z,3.80
2017-11-17T22:06:12.502Z,3.80
2017-11-17T22:08:40.062Z,3.80
2017-11-17T22:11:07.623Z,3.80
2017-11-17T22:13:35.207Z,4.00
2017-11-17T22:16:02.755Z,4.00
2017-11-17T22:18:31.179Z,4.00
2017-11-17T22:20:58.736Z,4.00
2017-11-17T22:23:26.285Z,4.00
2017-11-17T22:25:53.951Z,4.00
2017-11-17T22:28:21.755Z,3.90
2017-11-17T22:30:49.290Z,3.80
2017-11-17T22:33:16.874Z,3.80
2017-11-17T22:35:44.424Z,3.80
2017-11-17T22:38:13.511Z,3.80
2017-11-17T22:40:41.067Z,3.80
2017-11-17T22:43:08.626Z,3.90
2017-11-17T22:45:36.182Z,3.90
2017-11-17T22:48:03.754Z,4.00
2017-11-17T22:50:31.295Z,3.90
2017-11-17T22:52:58.830Z,4.00
2017-11-17T22:55:26.381Z,4.00
2017-11-17T22:57:54.694Z,4.00
2017-11-17T23:00:22.248Z,3.90
2017-11-17T23:02:49.795Z,3.90
2017-11-17T23:05:17.358Z,3.90
2017-11-17T23:07:44.915Z,3.90
2017-11-17T23:10:12.506Z,3.90
2017-11-17T23:12:40.053Z,3.90
2017-11-17T23:15:08.383Z,4.00
2017-11-17T23:17:36.200Z,4.00
2017-11-17T23:20:04.527Z,3.90
2017-11-17T23:22:32.083Z,3.90
2017-11-17T23:24:59.647Z,3.90
2017-11-17T23:27:27.173Z,3.80
2017-11-17T23:29:54.752Z,3.80
2017-11-17T23:32:22.367Z,4.00
2017-11-17T23:34:50.682Z,4.00
2017-11-17T23:37:18.238Z,4.00
2017-11-17T23:39:45.770Z,4.10
2017-11-17T23:42:14.103Z,4.00
2017-11-17T23:44:41.640Z,4.00
2017-11-17T23:47:09.205Z,3.90
2017-11-17T23:49:36.742Z,3.80
2017-11-17T23:52:04.309Z,3.80
2017-11-17T23:54:31.888Z,3.80
2017-11-17T23:56:59.472Z,3.90
2017-11-17T23:59:27.018Z,3.80
